Time;durP1;ratioP1;P1;durP2;ratioP2;P2;SDS_P1;SDS_P2;PMS_P1;PMS_P2;Temp;Humidity;BMP_temperature;BMP_pressure;BME280_temperature;BME280_humidity;BME280_pressure;Samples;Min_cycle;Max_cycle;Signal;HPM_P1;HPM_P2
2023/01/24 00:51:35;;;;;;;27.83;14.25;;;3.30;99.90;;;;;;3369258;26;20041;-89
2023/01/24 00:54:00;;;;;;;27.80;15.40;;;3.30;99.90;;;;;;5054265;28;20052;-90
2023/01/24 00:56:26;;;;;;;25.00;13.90;;;3.30;99.90;;;;;;5048574;28;20041;-90
2023/01/24 00:58:52;;;;;;;27.08;14.85;;;3.20;99.90;;;;;;5035893;28;20033;-89
2023/01/24 01:01:18;;;;;;;28.73;15.70;;;3.30;99.90;;;;;;5035463;28;20108;-90
2023/01/24 01:03:44;;;;;;;28.75;14.50;;;3.30;99.90;;;;;;5034386;28;20041;-90
2023/01/24 01:06:13;;;;;;;25.80;14.75;;;3.30;99.90;;;;;;5033068;28;20509;-89
2023/01/24 01:08:39;;;;;;;27.38;15.25;;;3.30;99.90;;;;;;5030374;28;20167;-90
2023/01/24 01:11:05;;;;;;;28.67;16.67;;;3.30;99.90;;;;;;5030776;28;20484;-90
2023/01/24 01:13:31;;;;;;;25.55;13.70;;;3.20;99.90;;;;;;5031914;28;20072;-89
2023/01/24 01:16:04;;;;;;;29.20;15.07;;;3.20;99.90;;;;;;5031531;28;20113;-90
2023/01/24 01:18:30;;;;;;;26.67;14.95;;;3.30;99.90;;;;;;5030503;28;20793;-90
2023/01/24 01:20:56;;;;;;;24.40;14.30;;;3.30;99.90;;;;;;5032020;28;20048;-90
2023/01/24 01:23:21;;;;;;;29.67;15.65;;;3.20;99.90;;;;;;5031725;28;20045;-90
2023/01/24 01:25:47;;;;;;;25.08;13.23;;;3.30;99.90;;;;;;5035328;28;20083;-90
2023/01/24 01:28:13;;;;;;;27.40;14.23;;;3.20;99.90;;;;;;5037125;28;20064;-90
2023/01/24 01:30:38;;;;;;;28.73;13.98;;;3.30;99.90;;;;;;5021265;28;20029;-90
2023/01/24 01:33:04;;;;;;;26.50;14.43;;;3.30;99.90;;;;;;5041681;28;20041;-90
2023/01/24 01:35:30;;;;;;;23.17;13.23;;;3.20;99.90;;;;;;5041375;28;20073;-90
2023/01/24 01:37:55;;;;;;;25.45;13.93;;;3.20;99.90;;;;;;5038542;28;20037;-90
2023/01/24 01:40:21;;;;;;;26.65;14.40;;;3.30;99.90;;;;;;5015923;28;20127;-90
2023/01/24 01:42:54;;;;;;;24.95;13.48;;;3.30;99.90;;;;;;5032144;28;20042;-90
2023/01/24 01:45:34;;;;;;;25.45;13.30;;;3.30;99.90;;;;;;5025613;28;20047;-88
2023/01/24 01:48:04;;;;;;;26.92;14.43;;;3.20;99.90;;;;;;5029838;28;20120;-90
2023/01/24 01:50:39;;;;;;;21.92;12.57;;;3.20;99.90;;;;;;5026408;28;20128;-89
2023/01/24 01:53:05;;;;;;;25.33;13.23;;;3.30;99.90;;;;;;5028574;28;20049;-90
2023/01/24 01:55:35;;;;;;;21.67;11.85;;;3.30;99.90;;;;;;5024773;28;20106;-89
2023/01/24 01:58:01;;;;;;;23.63;12.43;;;3.30;99.90;;;;;;5026015;28;20402;-90
2023/01/24 02:00:28;;;;;;;24.98;14.15;;;3.30;99.90;;;;;;5028063;28;20045;-89
2023/01/24 02:05:54;;;;;;;24.85;14.65;;;3.30;99.90;;;;;;5026958;28;20053;-90
2023/01/24 02:08:22;;;;;;;25.52;12.70;;;3.30;99.90;;;;;;5028757;28;20666;-90
2023/01/24 02:13:43;;;;;;;27.60;15.18;;;3.30;99.90;;;;;;5027707;28;20046;-90
2023/01/24 02:16:10;;;;;;;25.63;13.27;;;3.30;99.90;;;;;;5028545;28;20045;-90
2023/01/24 02:18:38;;;;;;;23.73;14.10;;;3.30;99.90;;;;;;5029335;28;20101;-91
2023/01/24 02:21:15;;;;;;;25.30;13.90;;;3.30;99.90;;;;;;5025811;28;20087;-90
2023/01/24 02:23:43;;;;;;;23.50;12.02;;;3.30;99.90;;;;;;5027337;28;20048;-89
2023/01/24 02:26:13;;;;;;;23.80;13.20;;;3.30;99.90;;;;;;5027709;28;20053;-90
2023/01/24 02:28:44;;;;;;;23.50;12.18;;;3.30;99.90;;;;;;5029207;28;20490;-90
2023/01/24 02:31:09;;;;;;;21.45;11.70;;;3.30;99.90;;;;;;5030001;28;20059;-90
2023/01/24 02:33:35;;;;;;;25.35;13.43;;;3.30;99.90;;;;;;5031521;28;20033;-90
2023/01/24 02:36:28;;;;;;;23.85;11.98;;;3.30;99.90;;;;;;5029086;28;20033;-91
2023/01/24 02:39:11;;;;;;;21.58;12.82;;;3.30;99.90;;;;;;5027284;28;20095;-91
2023/01/24 02:41:47;;;;;;;21.42;13.25;;;3.30;99.90;;;;;;5030051;28;20424;-90
2023/01/24 02:44:33;;;;;;;21.50;11.57;;;3.30;99.90;;;;;;5024580;28;20041;-91
2023/01/24 02:46:59;;;;;;;23.77;13.60;;;3.30;99.90;;;;;;5025285;28;20038;-91
2023/01/24 02:49:24;;;;;;;22.45;12.82;;;3.30;99.90;;;;;;5028561;28;20120;-92
2023/01/24 02:54:34;;;;;;;20.27;11.18;;;3.30;99.90;;;;;;5028555;28;20099;-92
2023/01/24 02:59:44;;;;;;;19.27;11.93;;;3.30;99.90;;;;;;5022367;28;20049;-90
2023/01/24 03:02:10;;;;;;;20.33;11.23;;;3.30;99.90;;;;;;5026724;28;20041;-91
2023/01/24 03:04:35;;;;;;;21.50;11.80;;;3.30;99.90;;;;;;5028407;28;20041;-90
2023/01/24 03:07:01;;;;;;;19.40;11.70;;;3.30;99.90;;;;;;5027030;28;20049;-90
2023/01/24 03:09:33;;;;;;;21.60;12.38;;;3.30;99.90;;;;;;5024231;28;20049;-92
2023/01/24 03:36:39;;;;;;;19.65;11.52;;;3.30;99.90;;;;;;5031713;28;20057;-90
2023/01/24 03:41:49;;;;;;;22.13;11.95;;;3.30;99.90;;;;;;5031637;28;20049;-90
2023/01/24 03:44:15;;;;;;;20.17;11.30;;;3.30;99.90;;;;;;5030795;28;20049;-91
2023/01/24 03:46:40;;;;;;;22.65;11.55;;;3.30;99.90;;;;;;5032666;28;20851;-89
2023/01/24 03:49:07;;;;;;;21.85;11.82;;;3.20;99.90;;;;;;5031975;28;20441;-90
2023/01/24 03:54:17;;;;;;;18.23;11.32;;;3.20;99.90;;;;;;5031308;28;20075;-89
2023/01/24 03:56:42;;;;;;;20.15;11.85;;;3.30;99.90;;;;;;5031967;28;20045;-90
2023/01/24 03:59:08;;;;;;;21.13;12.27;;;3.20;99.90;;;;;;5031961;28;20048;-89
2023/01/24 04:01:34;;;;;;;19.50;11.93;;;3.30;99.90;;;;;;5030446;28;20125;-90
2023/01/24 04:04:00;;;;;;;20.67;10.60;;;3.30;99.90;;;;;;5029258;28;20045;-89
2023/01/24 04:06:25;;;;;;;21.42;12.35;;;3.20;99.90;;;;;;5043145;28;20125;-89
2023/01/24 04:08:51;;;;;;;22.02;12.73;;;3.20;99.90;;;;;;5028495;28;20076;-89
2023/01/24 04:11:17;;;;;;;20.05;12.10;;;3.20;99.90;;;;;;5028564;28;20212;-88
2023/01/24 04:13:42;;;;;;;19.20;11.50;;;3.20;99.90;;;;;;5031323;28;20453;-90
2023/01/24 04:16:09;;;;;;;20.30;11.07;;;3.20;99.90;;;;;;5011832;28;20087;-90
2023/01/24 04:18:36;;;;;;;18.88;10.02;;;3.20;99.90;;;;;;5031437;28;20029;-89
2023/01/24 04:21:03;;;;;;;17.83;10.93;;;3.20;99.90;;;;;;5030407;28;20045;-89
2023/01/24 04:23:29;;;;;;;20.10;11.23;;;3.20;99.90;;;;;;5031102;28;20057;-89
2023/01/24 04:25:57;;;;;;;18.98;10.27;;;3.30;99.90;;;;;;5030655;28;20497;-89
2023/01/24 04:28:23;;;;;;;19.30;11.35;;;3.30;99.90;;;;;;5042945;28;20048;-88
2023/01/24 04:30:55;;;;;;;18.10;11.13;;;3.20;99.90;;;;;;5049032;28;20021;-88
2023/01/24 04:33:20;;;;;;;18.08;11.48;;;3.20;99.90;;;;;;5051401;28;20045;-91
2023/01/24 04:35:46;;;;;;;16.88;10.00;;;3.20;99.90;;;;;;5053849;28;20049;-90
2023/01/24 04:38:11;;;;;;;16.63;9.27;;;3.20;99.90;;;;;;5056005;28;20032;-91
2023/01/24 04:40:37;;;;;;;18.10;9.30;;;3.20;99.90;;;;;;5045294;28;20367;-89
2023/01/24 04:43:03;;;;;;;18.20;9.70;;;3.20;99.90;;;;;;5036499;28;20338;-90
2023/01/24 04:45:28;;;;;;;16.90;9.30;;;3.20;99.90;;;;;;5033219;28;20042;-89
2023/01/24 04:47:54;;;;;;;16.70;9.65;;;3.20;99.90;;;;;;5014143;28;20106;-90
2023/01/24 04:50:20;;;;;;;16.77;9.23;;;3.20;99.90;;;;;;5024308;28;20046;-91
2023/01/24 04:52:46;;;;;;;17.83;9.00;;;3.20;99.90;;;;;;5014114;28;20041;-90
2023/01/24 04:55:11;;;;;;;16.65;8.55;;;3.20;99.90;;;;;;5028420;28;20041;-91
2023/01/24 04:57:37;;;;;;;17.63;9.48;;;3.20;99.90;;;;;;5032753;28;20045;-91
2023/01/24 05:00:04;;;;;;;16.23;9.63;;;3.20;99.90;;;;;;5029145;28;20328;-90
2023/01/24 05:02:30;;;;;;;17.63;10.13;;;3.20;99.90;;;;;;5017473;28;20138;-90
2023/01/24 05:04:55;;;;;;;18.67;10.20;;;3.20;99.90;;;;;;5029884;28;20065;-90
2023/01/24 05:07:21;;;;;;;18.00;8.68;;;3.20;99.90;;;;;;5029731;28;20045;-91
2023/01/24 05:09:46;;;;;;;17.65;9.27;;;3.20;99.90;;;;;;5032493;28;20047;-91
2023/01/24 05:12:12;;;;;;;17.67;9.65;;;3.20;99.90;;;;;;5026528;28;20180;-90
2023/01/24 05:14:38;;;;;;;16.35;8.73;;;3.20;99.90;;;;;;5020987;28;20037;-90
2023/01/24 05:17:03;;;;;;;17.13;8.65;;;3.10;99.90;;;;;;5028371;28;20042;-90
2023/01/24 05:19:29;;;;;;;16.48;9.15;;;3.20;99.90;;;;;;5025858;28;20068;-91
2023/01/24 05:21:55;;;;;;;16.88;9.10;;;3.20;99.90;;;;;;5027617;28;20066;-91
2023/01/24 05:24:20;;;;;;;16.42;8.63;;;3.10;99.90;;;;;;5024802;28;20080;-90
2023/01/24 05:26:46;;;;;;;17.40;10.20;;;3.20;99.90;;;;;;5025185;28;20037;-90
2023/01/24 05:29:11;;;;;;;17.38;8.32;;;3.20;99.90;;;;;;5025529;28;20083;-90
2023/01/24 05:31:37;;;;;;;15.77;8.98;;;3.20;99.90;;;;;;5026986;28;20033;-94
2023/01/24 05:34:05;;;;;;;15.90;9.38;;;3.20;99.90;;;;;;5028216;28;20045;-89
2023/01/24 05:36:31;;;;;;;15.57;9.57;;;3.10;99.90;;;;;;5028634;28;20393;-89
2023/01/24 05:38:56;;;;;;;16.63;9.45;;;3.20;99.90;;;;;;5046236;28;20046;-89
2023/01/24 05:41:22;;;;;;;16.75;8.82;;;3.10;99.90;;;;;;5030306;28;20044;-91
2023/01/24 05:43:48;;;;;;;15.82;8.80;;;3.10;99.90;;;;;;5029150;28;20088;-90
2023/01/24 05:46:17;;;;;;;14.75;8.38;;;3.10;99.90;;;;;;5029085;28;20045;-89
2023/01/24 05:48:43;;;;;;;15.65;8.20;;;3.10;99.90;;;;;;5031336;28;20041;-90
2023/01/24 05:51:12;;;;;;;16.65;9.23;;;3.10;99.90;;;;;;5028702;28;20132;-90
2023/01/24 05:53:39;;;;;;;15.02;8.10;;;3.10;99.90;;;;;;5027621;28;20048;-91
2023/01/24 05:56:08;;;;;;;15.00;8.75;;;3.10;99.90;;;;;;5030201;28;20052;-91
2023/01/24 05:58:36;;;;;;;15.15;8.23;;;3.10;99.90;;;;;;5030650;28;20042;-92
2023/01/24 06:01:16;;;;;;;17.02;8.15;;;3.10;99.90;;;;;;5029168;28;20120;-90
2023/01/24 06:03:43;;;;;;;18.13;8.50;;;3.10;99.90;;;;;;5031141;28;20486;-90
2023/01/24 06:06:10;;;;;;;15.27;8.40;;;3.10;99.90;;;;;;5029669;28;20052;-90
2023/01/24 06:08:36;;;;;;;14.20;8.00;;;3.00;99.90;;;;;;5041305;28;20052;-90
2023/01/24 06:11:09;;;;;;;14.57;7.25;;;3.10;99.90;;;;;;5042904;28;20085;-90
2023/01/24 06:13:34;;;;;;;15.52;7.32;;;3.10;99.90;;;;;;5045342;28;20064;-86
2023/01/24 06:16:05;;;;;;;16.05;9.27;;;3.10;99.90;;;;;;5031804;28;20040;-87
2023/01/24 06:18:30;;;;;;;15.85;8.43;;;3.10;99.90;;;;;;5036117;28;20055;-88
2023/01/24 06:20:56;;;;;;;16.52;8.82;;;3.00;99.90;;;;;;5035943;28;20093;-88
2023/01/24 06:23:26;;;;;;;16.42;8.07;;;3.00;99.90;;;;;;5034561;28;20036;-86
2023/01/24 06:25:53;;;;;;;15.10;7.40;;;3.00;99.90;;;;;;5027980;28;20053;-86
2023/01/24 06:28:19;;;;;;;16.92;8.60;;;3.00;99.90;;;;;;5025975;28;20046;-84
2023/01/24 06:30:59;;;;;;;15.65;7.70;;;3.00;99.90;;;;;;5030641;28;20622;-89
2023/01/24 06:33:42;;;;;;;15.55;7.82;;;3.00;99.90;;;;;;5030545;28;20339;-91
2023/01/24 06:36:22;;;;;;;14.68;8.20;;;3.00;99.90;;;;;;5028765;28;20056;-91
2023/01/24 06:38:48;;;;;;;14.70;8.63;;;3.00;99.90;;;;;;5026544;28;20142;-89
2023/01/24 06:41:16;;;;;;;17.60;9.18;;;3.00;99.90;;;;;;5025622;28;20430;-91
2023/01/24 06:43:44;;;;;;;15.30;8.65;;;3.00;99.90;;;;;;5049790;28;20513;-91
2023/01/24 06:46:11;;;;;;;18.00;9.00;;;3.00;99.90;;;;;;5025141;28;20057;-88
2023/01/24 06:48:37;;;;;;;16.40;9.07;;;3.00;99.90;;;;;;5028549;28;20057;-89
2023/01/24 06:51:03;;;;;;;14.90;8.05;;;3.00;99.90;;;;;;5026857;28;20045;-90
2023/01/24 06:53:29;;;;;;;17.85;9.30;;;3.00;99.90;;;;;;5046610;28;20401;-87
2023/01/24 06:55:54;;;;;;;15.95;8.88;;;3.00;99.90;;;;;;5031942;28;20044;-88
2023/01/24 06:58:20;;;;;;;16.65;8.15;;;2.90;99.90;;;;;;5031803;28;20049;-91
2023/01/24 07:00:45;;;;;;;17.88;8.40;;;3.00;99.90;;;;;;5033347;28;20065;-89
2023/01/24 07:03:11;;;;;;;15.93;8.30;;;2.90;99.90;;;;;;5033107;28;20103;-87
2023/01/24 07:05:38;;;;;;;16.42;8.32;;;3.00;99.90;;;;;;5016500;28;20041;-88
2023/01/24 07:08:05;;;;;;;16.98;9.13;;;3.00;99.90;;;;;;5032244;28;20045;-87
2023/01/24 07:10:32;;;;;;;17.45;8.88;;;3.00;99.90;;;;;;5031225;28;20094;-85
2023/01/24 07:12:58;;;;;;;14.35;8.40;;;3.00;99.90;;;;;;5014354;28;20069;-88
2023/01/24 07:15:24;;;;;;;15.20;8.75;;;3.00;99.90;;;;;;5031515;28;20581;-90
2023/01/24 07:17:50;;;;;;;18.23;8.85;;;3.00;99.90;;;;;;5035122;28;20037;-86
2023/01/24 07:20:16;;;;;;;15.57;9.13;;;3.00;99.90;;;;;;5035377;28;20048;-87
2023/01/24 07:22:42;;;;;;;18.35;9.07;;;3.00;99.90;;;;;;5031228;28;20047;-89
2023/01/24 07:25:18;;;;;;;16.05;9.35;;;2.90;99.90;;;;;;5038135;28;20041;-88
2023/01/24 07:27:44;;;;;;;16.88;8.57;;;3.00;99.90;;;;;;5034517;28;20051;-89
2023/01/24 07:30:12;;;;;;;16.02;8.20;;;3.00;99.90;;;;;;5041950;28;20045;-90
2023/01/24 07:32:37;;;;;;;16.73;9.90;;;3.00;99.90;;;;;;5040040;28;20477;-89
2023/01/24 07:35:04;;;;;;;17.30;9.57;;;3.00;99.90;;;;;;5033147;28;20041;-89
2023/01/24 07:37:30;;;;;;;16.00;8.98;;;3.00;99.90;;;;;;5030750;28;20045;-86
2023/01/24 07:39:56;;;;;;;15.70;7.95;;;3.00;99.90;;;;;;5034361;28;20047;-90
2023/01/24 07:42:21;;;;;;;16.65;9.93;;;3.00;99.90;;;;;;5029783;28;20144;-86
2023/01/24 07:44:47;;;;;;;16.52;8.32;;;3.00;99.90;;;;;;5029888;28;20044;-87
2023/01/24 07:47:12;;;;;;;16.10;8.55;;;3.00;99.90;;;;;;5030353;28;20037;-86
2023/01/24 07:49:38;;;;;;;14.35;8.20;;;3.00;99.90;;;;;;5029720;28;21877;-87
2023/01/24 07:52:03;;;;;;;17.02;8.82;;;3.00;99.90;;;;;;5028835;28;20096;-88
2023/01/24 07:54:29;;;;;;;15.73;9.48;;;3.00;99.90;;;;;;5013091;28;20161;-88
2023/01/24 07:56:55;;;;;;;17.70;8.85;;;3.00;99.90;;;;;;5030570;28;20554;-89
2023/01/24 07:59:20;;;;;;;17.98;8.73;;;3.00;99.90;;;;;;5028831;28;20045;-90
2023/01/24 08:01:46;;;;;;;17.35;9.32;;;3.00;99.90;;;;;;5031608;28;20044;-88
2023/01/24 08:04:11;;;;;;;14.98;8.05;;;3.00;99.90;;;;;;5015443;28;20073;-90
2023/01/24 08:07:16;;;;;;;16.85;9.35;;;3.00;99.90;;;;;;5013352;28;20577;-87
2023/01/24 08:09:24;;;;;;;16.13;9.15;;;3.00;99.90;;;;;;5020598;28;20037;-87
2023/01/24 08:11:50;;;;;;;17.02;9.02;;;3.00;99.90;;;;;;5042756;28;20072;-89
2023/01/24 08:14:15;;;;;;;16.23;8.43;;;3.00;99.90;;;;;;5023918;28;20098;-91
2023/01/24 08:16:41;;;;;;;16.58;9.65;;;2.90;99.90;;;;;;5035531;28;20040;-90
2023/01/24 08:19:07;;;;;;;16.15;9.00;;;3.00;99.90;;;;;;5050199;28;20045;-89
2023/01/24 08:21:32;;;;;;;15.75;8.60;;;3.00;99.90;;;;;;5047969;28;20062;-88
2023/01/24 08:23:58;;;;;;;15.52;8.65;;;3.00;99.90;;;;;;5044128;28;20049;-88
2023/01/24 08:26:23;;;;;;;17.20;8.88;;;3.00;99.90;;;;;;5045586;28;20093;-89
2023/01/24 08:28:49;;;;;;;16.50;9.05;;;3.00;99.90;;;;;;5044903;28;20389;-88
2023/01/24 08:31:14;;;;;;;16.15;9.23;;;3.00;99.90;;;;;;5037950;28;20482;-90
2023/01/24 08:33:40;;;;;;;15.80;8.95;;;3.00;99.90;;;;;;5048559;28;20048;-88
2023/01/24 08:36:06;;;;;;;17.15;9.73;;;3.00;99.90;;;;;;5051557;28;20041;-88
2023/01/24 08:38:32;;;;;;;15.43;8.63;;;3.00;99.90;;;;;;5047246;28;20045;-86
2023/01/24 08:40:58;;;;;;;17.08;9.30;;;3.00;99.90;;;;;;5046250;28;20101;-88
2023/01/24 08:43:23;;;;;;;18.23;9.48;;;3.00;99.90;;;;;;5043075;28;20057;-89
2023/01/24 08:45:54;;;;;;;16.83;8.82;;;3.00;99.90;;;;;;5032893;28;20033;-88
2023/01/24 08:48:19;;;;;;;14.70;8.57;;;3.00;99.90;;;;;;5031663;28;20044;-88
2023/01/24 08:50:45;;;;;;;17.80;9.02;;;3.00;99.90;;;;;;5030842;28;20041;-87
2023/01/24 08:53:10;;;;;;;15.52;8.93;;;3.00;99.90;;;;;;5034429;28;20041;-89
2023/01/24 08:55:36;;;;;;;17.48;10.38;;;3.00;99.90;;;;;;5036544;28;20502;-90
2023/01/24 08:58:03;;;;;;;16.02;9.05;;;3.10;99.90;;;;;;5028625;28;20050;-86
2023/01/24 09:00:30;;;;;;;17.45;8.68;;;3.10;99.90;;;;;;5029177;28;20045;-88
2023/01/24 09:03:00;;;;;;;18.08;8.88;;;3.10;99.90;;;;;;5029449;28;20495;-87
2023/01/24 09:05:29;;;;;;;17.25;8.95;;;3.10;99.90;;;;;;5026976;28;20053;-87
2023/01/24 09:07:55;;;;;;;17.08;9.00;;;3.10;99.90;;;;;;5030742;28;20037;-83
2023/01/24 09:10:20;;;;;;;17.60;8.70;;;3.10;99.90;;;;;;5027212;28;20104;-86
2023/01/24 09:12:46;;;;;;;16.52;8.70;;;3.10;99.90;;;;;;5030688;28;20048;-85
2023/01/24 09:15:11;;;;;;;16.85;8.52;;;3.10;99.90;;;;;;5026483;28;20053;-85
2023/01/24 09:17:39;;;;;;;15.93;9.05;;;3.10;99.90;;;;;;5027024;28;20175;-85
2023/01/24 09:20:06;;;;;;;15.20;9.38;;;3.10;99.90;;;;;;5027971;28;20045;-87
2023/01/24 09:22:32;;;;;;;15.95;8.80;;;3.10;99.90;;;;;;5028059;28;20037;-85
2023/01/24 09:24:57;;;;;;;18.13;9.35;;;3.10;99.90;;;;;;5026507;28;20033;-85
2023/01/24 09:27:23;;;;;;;16.23;8.98;;;3.10;99.90;;;;;;5011150;28;20493;-84
2023/01/24 09:29:48;;;;;;;15.60;8.70;;;3.10;99.90;;;;;;5029106;28;20383;-85
2023/01/24 09:32:16;;;;;;;16.70;9.18;;;3.10;99.90;;;;;;5027829;28;20069;-85
2023/01/24 09:34:46;;;;;;;16.42;9.95;;;3.10;99.90;;;;;;5030918;28;20099;-90
2023/01/24 09:37:15;;;;;;;15.23;8.57;;;3.10;99.90;;;;;;5027212;28;20041;-87
2023/01/24 09:39:41;;;;;;;16.13;8.98;;;3.10;99.90;;;;;;5027432;28;20048;-84
2023/01/24 09:42:37;;;;;;;17.05;10.43;;;3.10;99.90;;;;;;5029065;28;20033;-84
2023/01/24 09:45:15;;;;;;;18.05;10.20;;;3.10;99.90;;;;;;5028610;28;20033;-87
2023/01/24 09:47:45;;;;;;;15.93;9.85;;;3.10;99.90;;;;;;5032442;28;20083;-87
2023/01/24 09:50:29;;;;;;;18.67;10.00;;;3.20;99.90;;;;;;5022577;28;20148;-88
2023/01/24 09:52:58;;;;;;;17.45;10.02;;;3.10;99.90;;;;;;5027884;28;20120;-86
2023/01/24 09:55:41;;;;;;;14.95;8.45;;;3.20;99.90;;;;;;5029223;28;20045;-88
2023/01/24 09:58:28;;;;;;;15.10;8.73;;;3.20;99.90;;;;;;5022870;28;20037;-84
2023/01/24 10:00:54;;;;;;;16.10;8.88;;;3.20;99.90;;;;;;5026233;28;20037;-90
2023/01/24 10:03:24;;;;;;;16.50;9.13;;;3.20;99.90;;;;;;5028393;28;20426;-87
2023/01/24 10:06:06;;;;;;;16.45;8.98;;;3.20;99.90;;;;;;5028946;28;20083;-91
2023/01/24 10:08:37;;;;;;;15.80;8.45;;;3.20;99.90;;;;;;5028065;28;20052;-86
2023/01/24 10:11:17;;;;;;;14.48;8.85;;;3.30;99.90;;;;;;5029753;28;20065;-88
2023/01/24 10:14:01;;;;;;;16.75;9.10;;;3.30;99.90;;;;;;5029696;28;20045;-88
2023/01/24 10:16:44;;;;;;;17.20;9.20;;;3.30;99.90;;;;;;5024602;28;20053;-86
2023/01/24 10:19:16;;;;;;;16.23;9.18;;;3.30;99.90;;;;;;5055627;28;20578;-85
2023/01/24 10:22:11;;;;;;;13.32;7.85;;;3.30;99.90;;;;;;5026521;28;20041;-88
2023/01/24 10:24:45;;;;;;;16.85;9.73;;;3.30;99.90;;;;;;5026873;28;20041;-86
2023/01/24 10:27:30;;;;;;;16.23;9.63;;;3.40;99.90;;;;;;5015467;28;20041;-88
2023/01/24 10:30:00;;;;;;;17.10;9.55;;;3.40;99.90;;;;;;5053828;28;20050;-87
2023/01/24 10:32:32;;;;;;;16.65;9.55;;;3.40;99.90;;;;;;5015497;28;20044;-89
2023/01/24 10:35:21;;;;;;;17.73;9.55;;;3.40;99.90;;;;;;5029277;28;20124;-91
2023/01/24 10:37:55;;;;;;;15.75;8.77;;;3.40;99.90;;;;;;5029719;28;20128;-89
2023/01/24 10:40:22;;;;;;;15.18;8.88;;;3.50;99.90;;;;;;5027907;28;20132;-88
2023/01/24 10:42:48;;;;;;;15.18;8.60;;;3.40;99.90;;;;;;5028121;28;20041;-89
2023/01/24 10:45:35;;;;;;;17.00;9.32;;;3.50;99.90;;;;;;5028239;28;20316;-87
2023/01/24 10:48:25;;;;;;;18.33;10.82;;;3.50;99.90;;;;;;5027980;28;20532;-89
2023/01/24 10:50:50;;;;;;;15.57;9.20;;;3.50;99.90;;;;;;5027771;28;20057;-88
2023/01/24 10:53:25;;;;;;;16.45;8.88;;;3.50;99.90;;;;;;5018714;28;20049;-89
2023/01/24 10:56:02;;;;;;;16.92;9.25;;;3.40;99.90;;;;;;5073393;28;20049;-88
2023/01/24 10:58:35;;;;;;;17.40;9.93;;;3.50;99.90;;;;;;5040032;28;20046;-86
2023/01/24 11:01:18;;;;;;;16.25;9.65;;;3.50;99.90;;;;;;5044875;28;20389;-87
2023/01/24 11:03:46;;;;;;;16.00;9.10;;;3.50;99.90;;;;;;5042496;28;20059;-86
2023/01/24 11:06:36;;;;;;;14.10;8.15;;;3.50;99.90;;;;;;5055464;28;20020;-88
2023/01/24 11:09:10;;;;;;;16.15;8.77;;;3.50;99.90;;;;;;5066305;28;20030;-88
2023/01/24 11:11:43;;;;;;;17.75;9.27;;;3.50;99.90;;;;;;5033158;28;20050;-87
2023/01/24 11:14:13;;;;;;;18.30;9.43;;;3.50;99.90;;;;;;5044010;28;20097;-94
2023/01/24 11:16:48;;;;;;;14.90;8.90;;;3.50;99.90;;;;;;5034659;28;20038;-90
2023/01/24 11:19:35;;;;;;;16.50;9.68;;;3.50;99.90;;;;;;5029999;28;20052;-89
2023/01/24 11:22:18;;;;;;;16.73;9.13;;;3.50;99.90;;;;;;5023409;28;20056;-88
2023/01/24 11:24:45;;;;;;;17.85;8.60;;;3.50;99.90;;;;;;5041825;28;20041;-89
2023/01/24 11:27:16;;;;;;;15.98;9.07;;;3.50;99.90;;;;;;5026658;28;20092;-86
2023/01/24 11:29:42;;;;;;;14.90;9.45;;;3.50;99.90;;;;;;5026626;28;20044;-85
2023/01/24 11:32:23;;;;;;;18.38;10.30;;;3.50;99.90;;;;;;5026096;28;20042;-86
2023/01/24 11:35:02;;;;;;;16.50;10.65;;;3.50;99.90;;;;;;5025531;28;20042;-89
2023/01/24 11:37:49;;;;;;;19.08;17.08;;;3.50;99.90;;;;;;5031822;28;20048;-91
2023/01/24 11:40:31;;;;;;;17.25;9.90;;;3.50;99.90;;;;;;5032346;28;20386;-91
2023/01/24 11:43:12;;;;;;;15.15;9.02;;;3.50;99.90;;;;;;5032707;28;20078;-88
2023/01/24 11:45:59;;;;;;;15.98;8.85;;;3.50;99.90;;;;;;5050147;28;20056;-93
2023/01/24 11:48:45;;;;;;;16.25;9.48;;;3.50;99.90;;;;;;5027860;28;20053;-86
2023/01/24 11:51:33;;;;;;;15.57;9.02;;;3.50;99.90;;;;;;5030805;28;20045;-89
2023/01/24 11:54:13;;;;;;;16.48;10.15;;;3.50;99.90;;;;;;5031193;28;20044;-86
2023/01/24 11:56:57;;;;;;;17.13;9.73;;;3.50;99.90;;;;;;5034104;28;20116;-86
2023/01/24 11:59:35;;;;;;;16.17;10.27;;;3.50;99.90;;;;;;5028418;28;20041;-86
2023/01/24 12:02:13;;;;;;;18.25;10.85;;;3.40;99.90;;;;;;5031576;28;20501;-89
2023/01/24 12:05:02;;;;;;;16.27;10.25;;;3.40;99.90;;;;;;5024167;28;20050;-91
2023/01/24 12:07:57;;;;;;;16.48;9.93;;;3.40;99.90;;;;;;5032339;28;20521;-90
2023/01/24 12:10:39;;;;;;;17.23;10.02;;;3.40;99.90;;;;;;5031266;28;20045;-95
2023/01/24 12:13:28;;;;;;;18.15;10.18;;;3.40;99.90;;;;;;5032851;28;20323;-87
2023/01/24 12:16:00;;;;;;;16.48;9.10;;;3.30;99.90;;;;;;5035176;28;20052;-95
2023/01/24 12:18:50;;;;;;;18.33;10.13;;;3.30;99.90;;;;;;5030391;28;20041;-92
2023/01/24 12:21:16;;;;;;;15.57;9.50;;;3.30;99.90;;;;;;5033980;28;20033;-90
2023/01/24 12:23:49;;;;;;;17.02;10.35;;;3.30;99.90;;;;;;5032180;28;20056;-94
2023/01/24 12:26:22;;;;;;;17.33;11.10;;;3.40;99.90;;;;;;5033159;28;20757;-89
2023/01/24 12:28:53;;;;;;;17.92;9.82;;;3.40;99.90;;;;;;5029127;28;20148;-91
2023/01/24 12:31:30;;;;;;;19.83;12.57;;;3.40;99.90;;;;;;5032340;28;20041;-91
2023/01/24 12:34:33;;;;;;;17.98;11.25;;;3.40;99.90;;;;;;5033194;28;20037;-95
2023/01/24 12:37:21;;;;;;;16.95;10.20;;;3.40;99.90;;;;;;5056566;28;20053;-92
2023/01/24 12:40:13;;;;;;;18.02;9.63;;;3.40;99.90;;;;;;5036797;28;20068;-94
2023/01/24 12:42:43;;;;;;;16.33;9.73;;;3.30;99.90;;;;;;5056818;28;20069;-94
2023/01/24 12:45:38;;;;;;;16.25;9.38;;;3.30;99.90;;;;;;5036714;28;20052;-95
2023/01/24 12:48:19;;;;;;;17.65;9.70;;;3.30;99.90;;;;;;4977132;28;20312;-92
2023/01/24 12:51:39;;;;;;;16.73;8.80;;;3.30;99.90;;;;;;4966357;28;20562;-95
2023/01/24 12:54:15;;;;;;;18.02;10.38;;;3.30;99.90;;;;;;4946906;28;20054;-92
2023/01/24 12:56:58;;;;;;;17.60;9.98;;;3.40;99.90;;;;;;4969389;28;20058;-90
2023/01/24 12:59:28;;;;;;;16.73;8.98;;;3.30;99.90;;;;;;4968264;28;20054;-91
2023/01/24 13:02:18;;;;;;;16.98;10.00;;;3.30;99.90;;;;;;4970427;28;20058;-92
2023/01/24 13:05:07;;;;;;;16.88;9.90;;;3.30;99.90;;;;;;4955877;28;20097;-91
2023/01/24 13:08:02;;;;;;;16.27;10.32;;;3.30;99.90;;;;;;4968737;28;20854;-90
2023/01/24 13:10:44;;;;;;;17.85;10.43;;;3.30;99.90;;;;;;4952301;28;20100;-91
2023/01/24 13:13:46;;;;;;;16.92;10.00;;;3.30;99.90;;;;;;4956037;28;20153;-91
2023/01/24 13:16:33;;;;;;;19.67;10.77;;;3.20;99.90;;;;;;4984941;28;20141;-93
2023/01/24 13:19:10;;;;;;;19.08;9.70;;;3.30;99.90;;;;;;4951537;28;20097;-91
2023/01/24 13:21:52;;;;;;;17.52;9.95;;;3.30;99.90;;;;;;4960552;28;20058;-91
2023/01/24 13:24:30;;;;;;;17.55;10.57;;;3.30;99.90;;;;;;4969759;28;20541;-93
2023/01/24 13:27:11;;;;;;;17.55;10.05;;;3.20;99.90;;;;;;4988215;28;20046;-93
2023/01/24 13:29:48;;;;;;;18.33;10.10;;;3.20;99.90;;;;;;5030547;28;20132;-91
2023/01/24 13:32:19;;;;;;;18.92;10.15;;;3.20;99.90;;;;;;5028347;28;20088;-92
2023/01/24 13:34:52;;;;;;;17.20;9.43;;;3.20;99.90;;;;;;5029945;28;20132;-91
2023/01/24 13:37:22;;;;;;;18.92;9.77;;;3.20;99.90;;;;;;5026439;28;20034;-92
2023/01/24 13:40:19;;;;;;;16.87;9.97;;;3.20;99.90;;;;;;5030352;28;20045;-92
2023/01/24 13:42:44;;;;;;;18.90;10.52;;;3.20;99.90;;;;;;5002708;28;20136;-92
2023/01/24 13:45:25;;;;;;;16.88;9.70;;;3.20;99.90;;;;;;5032258;28;20609;-92
2023/01/24 13:47:56;;;;;;;19.08;10.63;;;3.20;99.90;;;;;;5030290;28;20048;-91
2023/01/24 13:50:23;;;;;;;18.47;10.80;;;3.20;99.90;;;;;;5030050;28;20046;-91
2023/01/24 13:52:54;;;;;;;18.13;10.10;;;3.20;99.90;;;;;;5029382;28;20056;-93
2023/01/24 13:55:19;;;;;;;17.20;10.35;;;3.20;99.90;;;;;;5032390;28;20046;-92
2023/01/24 13:57:46;;;;;;;18.30;10.07;;;3.20;99.90;;;;;;5033113;28;20557;-92
2023/01/24 14:00:23;;;;;;;17.45;10.15;;;3.20;99.90;;;;;;5031212;28;20041;-92
2023/01/24 14:02:51;;;;;;;17.33;11.02;;;3.20;99.90;;;;;;5027785;28;20092;-92
2023/01/24 14:05:29;;;;;;;16.80;10.35;;;3.20;99.90;;;;;;5030355;28;20128;-92
2023/01/24 14:07:59;;;;;;;18.60;10.60;;;3.20;99.90;;;;;;5029998;28;20103;-91
2023/01/24 14:10:45;;;;;;;17.92;9.68;;;3.20;99.90;;;;;;5031148;28;20041;-91
2023/01/24 14:13:49;;;;;;;18.45;10.90;;;3.20;99.90;;;;;;5031537;28;20042;-91
2023/01/24 14:16:23;;;;;;;16.40;9.10;;;3.10;99.90;;;;;;5029832;28;20041;-92
2023/01/24 14:19:11;;;;;;;18.00;9.48;;;3.10;99.90;;;;;;5029244;28;20041;-91
2023/01/24 14:22:05;;;;;;;17.45;9.82;;;3.10;99.90;;;;;;5029407;28;20057;-91
2023/01/24 14:24:32;;;;;;;19.38;10.60;;;3.10;99.90;;;;;;5012579;28;20100;-91
2023/01/24 14:27:13;;;;;;;18.95;10.85;;;3.10;99.90;;;;;;5014259;28;20037;-92
2023/01/24 14:29:42;;;;;;;17.38;9.90;;;3.10;99.90;;;;;;5030107;28;20042;-91
2023/01/24 14:32:18;;;;;;;15.45;9.70;;;3.10;99.90;;;;;;5029303;28;20106;-91
2023/01/24 14:34:50;;;;;;;15.60;9.45;;;3.10;99.90;;;;;;5017566;28;20446;-95
2023/01/24 14:37:18;;;;;;;17.17;10.02;;;3.10;99.90;;;;;;5031178;28;20041;-91